Time;durP1;ratioP1;P1;durP2;ratioP2;P2;SDS_P1;SDS_P2;PMS_P1;PMS_P2;Temp;Humidity;BMP_temperature;BMP_pressure;BME280_temperature;BME280_humidity;BME280_pressure;Samples;Min_cycle;Max_cycle;Signal;HPM_P1;HPM_P2
2023/03/31 00:00:46;;;;;;;5.07;2.37;;;;;;;;;;5042537;28;20280;-79
2023/03/31 00:03:20;;;;;;;6.23;2.40;;;;;;;;;;5030188;28;20186;-80
2023/03/31 00:05:54;;;;;;;7.27;2.93;;;;;;;;;;5059580;28;20185;-79
2023/03/31 00:08:21;;;;;;;6.33;2.30;;;;;;;;;;5039383;28;20665;-79
2023/03/31 00:10:47;;;;;;;7.03;2.43;;;;;;;;;;5010119;28;20232;-80
2023/03/31 00:13:13;;;;;;;6.27;2.13;;;;;;;;;;5046010;28;20196;-78
2023/03/31 00:15:40;;;;;;;7.60;2.10;;;;;;;;;;5051848;28;20272;-79
2023/03/31 00:18:06;;;;;;;5.53;2.20;;;;;;;;;;5050402;28;20205;-80
2023/03/31 00:20:32;;;;;;;8.23;2.80;;;;;;;;;;5048774;28;20677;-78
2023/03/31 00:23:00;;;;;;;7.67;2.60;;;;;;;;;;5056464;28;20234;-79
2023/03/31 00:25:27;;;;;;;7.73;3.00;;;;;;;;;;5055376;28;20198;-80
2023/03/31 00:27:53;;;;;;;5.43;2.30;;;;;;;;;;5056526;28;20657;-79
2023/03/31 00:30:19;;;;;;;7.93;3.40;;;;;;;;;;5046094;28;20256;-80
2023/03/31 00:32:46;;;;;;;8.37;2.40;;;;;;;;;;5049482;28;20189;-80
2023/03/31 00:35:12;;;;;;;4.77;1.93;;;;;;;;;;5047870;28;20241;-77
2023/03/31 00:37:38;;;;;;;6.97;2.03;;;;;;;;;;5047806;28;20260;-77
2023/03/31 00:40:08;;;;;;;7.77;2.70;;;;;;;;;;5047775;28;20265;-79
2023/03/31 00:42:41;;;;;;;7.47;2.93;;;;;;;;;;5045850;28;20209;-78
2023/03/31 00:45:13;;;;;;;6.07;2.23;;;;;;;;;;5044010;28;20185;-75
2023/03/31 00:47:40;;;;;;;6.63;2.30;;;;;;;;;;5045922;28;20193;-76
2023/03/31 00:50:14;;;;;;;6.23;1.83;;;;;;;;;;5047608;28;20327;-76
2023/03/31 00:52:40;;;;;;;6.63;1.97;;;;;;;;;;5041199;28;20195;-77
2023/03/31 00:55:08;;;;;;;7.20;2.40;;;;;;;;;;5047907;28;20724;-77
2023/03/31 00:57:38;;;;;;;5.50;2.20;;;;;;;;;;5046467;28;20284;-76
2023/03/31 01:00:24;;;;;;;7.77;2.30;;;;;;;;;;5051869;28;20182;-77
2023/03/31 01:02:54;;;;;;;9.00;2.00;;;;;;;;;;5048028;28;20195;-77
2023/03/31 01:05:26;;;;;;;9.60;2.40;;;;;;;;;;5045388;28;20213;-77
2023/03/31 01:07:54;;;;;;;7.50;2.83;;;;;;;;;;5048928;28;20189;-77
2023/03/31 01:10:20;;;;;;;10.43;3.40;;;;;;;;;;5047765;28;20217;-77
2023/03/31 01:12:53;;;;;;;7.90;2.70;;;;;;;;;;5042047;28;20182;-75
2023/03/31 01:15:19;;;;;;;7.70;2.30;;;;;;;;;;5044262;28;20205;-76
2023/03/31 01:17:48;;;;;;;5.83;2.00;;;;;;;;;;5042630;28;20181;-77
2023/03/31 01:20:24;;;;;;;7.70;2.10;;;;;;;;;;5044583;28;20323;-77
2023/03/31 01:23:13;;;;;;;5.63;2.20;;;;;;;;;;5040030;28;20200;-77
2023/03/31 01:25:51;;;;;;;5.90;2.03;;;;;;;;;;5026747;28;20201;-77
2023/03/31 01:28:38;;;;;;;7.90;2.47;;;;;;;;;;5041466;28;21953;-77
2023/03/31 01:31:10;;;;;;;7.63;2.33;;;;;;;;;;5045419;28;20293;-76
2023/03/31 01:34:06;;;;;;;6.63;2.10;;;;;;;;;;5024169;28;20193;-76
2023/03/31 01:36:51;;;;;;;7.13;2.37;;;;;;;;;;5045141;28;20819;-77
2023/03/31 01:39:36;;;;;;;6.97;2.20;;;;;;;;;;5047714;28;20243;-77
2023/03/31 01:42:11;;;;;;;8.47;2.17;;;;;;;;;;5038590;28;20590;-77
2023/03/31 01:45:02;;;;;;;6.87;2.30;;;;;;;;;;5048350;28;20182;-77
2023/03/31 01:47:33;;;;;;;6.80;2.30;;;;;;;;;;5045449;28;20190;-78
2023/03/31 01:50:06;;;;;;;5.30;2.17;;;;;;;;;;5046384;28;20232;-77
2023/03/31 01:52:42;;;;;;;7.53;2.87;;;;;;;;;;5056999;28;20209;-77
2023/03/31 01:55:11;;;;;;;6.40;2.13;;;;;;;;;;5046738;28;20213;-77
2023/03/31 01:57:45;;;;;;;8.43;2.97;;;;;;;;;;5045904;28;20231;-77
2023/03/31 02:00:12;;;;;;;7.27;2.20;;;;;;;;;;5050899;28;20201;-78
2023/03/31 02:02:45;;;;;;;4.90;2.10;;;;;;;;;;5049307;28;20209;-77
2023/03/31 02:05:20;;;;;;;5.37;2.10;;;;;;;;;;5051478;28;20189;-77
2023/03/31 02:07:51;;;;;;;6.67;2.73;;;;;;;;;;5031566;28;20213;-77
2023/03/31 02:10:17;;;;;;;8.37;2.37;;;;;;;;;;5059380;28;20208;-77
2023/03/31 02:12:45;;;;;;;5.80;2.30;;;;;;;;;;5053604;28;20196;-76
2023/03/31 02:15:14;;;;;;;9.33;2.50;;;;;;;;;;5043028;28;20210;-77
2023/03/31 02:17:44;;;;;;;8.40;2.20;;;;;;;;;;5045161;28;20236;-76
2023/03/31 02:20:14;;;;;;;5.93;2.00;;;;;;;;;;5069732;28;20216;-77
2023/03/31 02:22:43;;;;;;;9.83;2.30;;;;;;;;;;5053865;28;20186;-77
2023/03/31 02:25:10;;;;;;;8.40;2.27;;;;;;;;;;5054550;28;20657;-77
2023/03/31 02:27:39;;;;;;;6.93;1.90;;;;;;;;;;5047721;28;20205;-77
2023/03/31 02:30:06;;;;;;;6.03;2.30;;;;;;;;;;5045695;28;20205;-77
2023/03/31 02:32:40;;;;;;;5.93;1.93;;;;;;;;;;5050640;28;20190;-77
2023/03/31 02:35:09;;;;;;;5.77;2.10;;;;;;;;;;5056674;28;20221;-76
2023/03/31 02:37:36;;;;;;;7.43;2.33;;;;;;;;;;5052939;28;20186;-77
2023/03/31 02:40:09;;;;;;;5.87;2.13;;;;;;;;;;5036650;28;20743;-77
2023/03/31 02:42:37;;;;;;;5.40;1.80;;;;;;;;;;5050017;28;20248;-77
2023/03/31 02:45:05;;;;;;;7.83;2.17;;;;;;;;;;5060249;28;20722;-75
2023/03/31 02:47:32;;;;;;;9.67;2.30;;;;;;;;;;5041285;28;20788;-77
2023/03/31 02:50:00;;;;;;;5.83;2.27;;;;;;;;;;5051842;28;20182;-77
2023/03/31 02:52:36;;;;;;;6.20;2.00;;;;;;;;;;5048144;28;20185;-77
2023/03/31 02:55:21;;;;;;;6.53;2.10;;;;;;;;;;5027629;28;20271;-76
2023/03/31 02:58:06;;;;;;;8.20;2.60;;;;;;;;;;5053846;28;20273;-77
2023/03/31 03:00:44;;;;;;;7.07;2.20;;;;;;;;;;5023348;28;20229;-77
2023/03/31 03:03:11;;;;;;;5.63;2.10;;;;;;;;;;5044369;28;20178;-76
2023/03/31 03:05:44;;;;;;;5.57;1.80;;;;;;;;;;5069994;28;20194;-76
2023/03/31 03:08:39;;;;;;;4.70;1.67;;;;;;;;;;5034605;28;20575;-77
2023/03/31 03:11:25;;;;;;;6.83;2.33;;;;;;;;;;5035901;28;20305;-76
2023/03/31 03:13:53;;;;;;;4.70;2.03;;;;;;;;;;5044732;28;20182;-76
2023/03/31 03:16:28;;;;;;;5.57;1.90;;;;;;;;;;5044050;28;20216;-77
2023/03/31 03:18:58;;;;;;;6.63;2.00;;;;;;;;;;5034317;28;20545;-75
2023/03/31 03:21:25;;;;;;;5.30;1.90;;;;;;;;;;5030370;28;20210;-77
2023/03/31 03:23:51;;;;;;;6.17;2.00;;;;;;;;;;5055189;28;20230;-77
2023/03/31 03:26:20;;;;;;;5.83;2.00;;;;;;;;;;5049948;28;20595;-77
2023/03/31 03:28:49;;;;;;;7.00;1.90;;;;;;;;;;5049886;28;20687;-77
2023/03/31 03:31:16;;;;;;;5.80;1.80;;;;;;;;;;5046951;28;20211;-77
2023/03/31 03:33:42;;;;;;;5.83;1.60;;;;;;;;;;5045822;28;20185;-77
2023/03/31 03:36:09;;;;;;;5.57;1.60;;;;;;;;;;5047312;28;20269;-77
2023/03/31 03:38:35;;;;;;;5.87;1.70;;;;;;;;;;5043780;28;20264;-77
2023/03/31 03:41:02;;;;;;;3.93;1.67;;;;;;;;;;5042625;28;20535;-77
2023/03/31 03:43:28;;;;;;;3.33;1.47;;;;;;;;;;5042580;28;20217;-77
2023/03/31 03:45:54;;;;;;;7.10;1.90;;;;;;;;;;5044567;28;20178;-75
2023/03/31 03:48:20;;;;;;;3.37;1.67;;;;;;;;;;5049686;28;20272;-77
2023/03/31 03:50:46;;;;;;;5.67;1.60;;;;;;;;;;5054787;28;20201;-77
2023/03/31 03:53:13;;;;;;;5.77;1.77;;;;;;;;;;5043991;28;20213;-77
2023/03/31 03:55:39;;;;;;;3.60;1.67;;;;;;;;;;5044321;28;20680;-77
2023/03/31 03:58:05;;;;;;;2.90;1.60;;;;;;;;;;5042824;28;20182;-77
2023/03/31 04:00:32;;;;;;;4.53;1.63;;;;;;;;;;5042864;28;20221;-77
2023/03/31 04:02:58;;;;;;;2.93;1.60;;;;;;;;;;5032087;28;20170;-77
2023/03/31 04:05:24;;;;;;;6.93;1.80;;;;;;;;;;5043939;28;20189;-76
2023/03/31 04:07:51;;;;;;;4.00;1.70;;;;;;;;;;5038718;28;20181;-77
2023/03/31 04:10:17;;;;;;;4.60;1.73;;;;;;;;;;5041597;28;20209;-77
2023/03/31 04:12:43;;;;;;;5.83;1.83;;;;;;;;;;5046782;28;20193;-77
2023/03/31 04:15:09;;;;;;;5.07;1.97;;;;;;;;;;5039787;28;20221;-77
2023/03/31 04:17:36;;;;;;;5.73;1.70;;;;;;;;;;5043258;28;20246;-75
2023/03/31 04:20:10;;;;;;;4.60;1.80;;;;;;;;;;5033520;28;20178;-76
2023/03/31 04:22:39;;;;;;;4.50;1.53;;;;;;;;;;5045358;28;20259;-77
2023/03/31 04:25:13;;;;;;;4.40;1.67;;;;;;;;;;5047989;28;20178;-77
2023/03/31 04:27:57;;;;;;;4.80;1.67;;;;;;;;;;5044624;28;20587;-77
2023/03/31 04:30:29;;;;;;;6.23;1.97;;;;;;;;;;5043545;28;21600;-76
2023/03/31 04:32:57;;;;;;;6.00;2.20;;;;;;;;;;5046004;28;20192;-77
2023/03/31 04:35:24;;;;;;;5.07;1.70;;;;;;;;;;5041775;28;20229;-75
2023/03/31 04:37:57;;;;;;;7.07;1.87;;;;;;;;;;5040048;28;20365;-77
2023/03/31 04:40:24;;;;;;;5.03;1.87;;;;;;;;;;5046204;28;20402;-77
2023/03/31 04:42:51;;;;;;;3.10;1.73;;;;;;;;;;5041360;28;20178;-77
2023/03/31 04:45:17;;;;;;;6.07;1.80;;;;;;;;;;5045031;28;20255;-77
2023/03/31 04:47:43;;;;;;;5.93;2.00;;;;;;;;;;5052009;28;20887;-77
2023/03/31 04:50:10;;;;;;;4.80;1.73;;;;;;;;;;5043489;28;20542;-77
2023/03/31 04:52:37;;;;;;;4.03;1.80;;;;;;;;;;5061340;28;20197;-77
2023/03/31 04:55:04;;;;;;;3.83;1.53;;;;;;;;;;5048961;28;20605;-77
2023/03/31 04:57:30;;;;;;;7.17;1.90;;;;;;;;;;5017277;28;20186;-76
2023/03/31 04:59:56;;;;;;;4.67;2.10;;;;;;;;;;5044271;28;20186;-77
2023/03/31 05:02:22;;;;;;;5.53;1.70;;;;;;;;;;5022520;28;20190;-76
2023/03/31 05:04:52;;;;;;;5.03;1.70;;;;;;;;;;5044788;28;20180;-77
2023/03/31 05:07:18;;;;;;;5.30;2.20;;;;;;;;;;5041788;28;20264;-77
2023/03/31 05:09:45;;;;;;;6.67;2.00;;;;;;;;;;5044360;28;20209;-77
2023/03/31 05:12:11;;;;;;;5.63;1.73;;;;;;;;;;5043667;28;20210;-77
2023/03/31 05:14:38;;;;;;;5.68;2.10;;;;;;;;;;5045195;28;20439;-77
2023/03/31 05:17:04;;;;;;;5.20;1.83;;;;;;;;;;5043534;28;20210;-77
2023/03/31 05:19:30;;;;;;;7.90;2.20;;;;;;;;;;5049533;28;20185;-77
2023/03/31 05:21:56;;;;;;;5.60;2.13;;;;;;;;;;5045614;28;20221;-76
2023/03/31 05:24:22;;;;;;;6.00;2.10;;;;;;;;;;5046806;28;20178;-77
2023/03/31 05:26:51;;;;;;;4.43;2.30;;;;;;;;;;5047671;28;20712;-77
2023/03/31 05:29:20;;;;;;;7.70;2.60;;;;;;;;;;5046171;28;20243;-77
2023/03/31 05:31:47;;;;;;;5.10;2.13;;;;;;;;;;5044037;28;20704;-78
2023/03/31 05:34:13;;;;;;;4.50;2.53;;;;;;;;;;5045111;28;20597;-78
2023/03/31 05:36:39;;;;;;;8.40;2.80;;;;;;;;;;5043507;28;20703;-78
2023/03/31 05:39:06;;;;;;;7.20;2.50;;;;;;;;;;5050268;28;20197;-77
2023/03/31 05:41:33;;;;;;;7.30;2.50;;;;;;;;;;5049082;28;20445;-82
2023/03/31 05:43:59;;;;;;;8.33;2.70;;;;;;;;;;5053481;28;20244;-82
2023/03/31 05:46:26;;;;;;;7.17;3.03;;;;;;;;;;5057856;28;20201;-82
2023/03/31 05:48:52;;;;;;;5.00;2.63;;;;;;;;;;5054139;28;20186;-77
2023/03/31 05:51:18;;;;;;;7.17;2.90;;;;;;;;;;5048574;28;20332;-78
2023/03/31 05:53:45;;;;;;;7.43;3.20;;;;;;;;;;5040808;28;20194;-77
2023/03/31 05:56:11;;;;;;;8.17;3.13;;;;;;;;;;5050340;28;20205;-81
2023/03/31 05:58:37;;;;;;;7.97;3.30;;;;;;;;;;5051364;28;20654;-80
2023/03/31 06:01:08;;;;;;;8.10;4.90;;;;;;;;;;5042770;28;20225;-81
2023/03/31 06:03:35;;;;;;;7.60;3.90;;;;;;;;;;5066769;28;20181;-81
2023/03/31 06:06:04;;;;;;;7.00;3.37;;;;;;;;;;5034592;28;20274;-84
2023/03/31 06:08:30;;;;;;;8.10;3.70;;;;;;;;;;5053357;28;20315;-80
2023/03/31 06:10:57;;;;;;;7.37;3.93;;;;;;;;;;5058779;28;20288;-80
2023/03/31 06:13:23;;;;;;;5.97;3.70;;;;;;;;;;5054317;28;20181;-80
2023/03/31 06:15:56;;;;;;;7.70;3.73;;;;;;;;;;5058879;28;20860;-80
2023/03/31 06:18:22;;;;;;;6.93;3.53;;;;;;;;;;5054634;28;20542;-80
2023/03/31 06:20:49;;;;;;;7.27;3.90;;;;;;;;;;5057428;28;20205;-80
2023/03/31 06:23:15;;;;;;;8.83;4.07;;;;;;;;;;5044545;28;20190;-79
2023/03/31 06:25:41;;;;;;;9.23;4.37;;;;;;;;;;5052793;28;21714;-79
2023/03/31 06:28:07;;;;;;;8.10;4.37;;;;;;;;;;5052634;28;20255;-78
2023/03/31 06:30:34;;;;;;;7.73;4.50;;;;;;;;;;5048588;28;20201;-78
2023/03/31 06:33:00;;;;;;;8.73;4.67;;;;;;;;;;5045747;28;20273;-79
2023/03/31 06:35:27;;;;;;;8.33;4.83;;;;;;;;;;5049199;28;20193;-79
2023/03/31 06:37:53;;;;;;;10.97;5.13;;;;;;;;;;5045319;28;20196;-79
2023/03/31 06:40:19;;;;;;;9.73;5.20;;;;;;;;;;5042211;28;20206;-78
2023/03/31 06:42:45;;;;;;;8.30;5.00;;;;;;;;;;5040967;28;20193;-77
2023/03/31 06:45:11;;;;;;;9.57;5.30;;;;;;;;;;5045014;28;20178;-79
2023/03/31 06:47:40;;;;;;;10.97;4.57;;;;;;;;;;5042192;28;20684;-79
2023/03/31 06:50:06;;;;;;;13.27;5.37;;;;;;;;;;5050242;28;20307;-79
2023/03/31 06:52:33;;;;;;;10.50;6.27;;;;;;;;;;5051901;28;20197;-79
2023/03/31 06:54:59;;;;;;;7.93;5.17;;;;;;;;;;5050832;28;20181;-79
2023/03/31 06:57:28;;;;;;;7.77;4.90;;;;;;;;;;5046405;28;20261;-78
2023/03/31 06:59:55;;;;;;;12.70;5.57;;;;;;;;;;5046512;28;20551;-78
2023/03/31 07:02:21;;;;;;;11.73;5.97;;;;;;;;;;5035502;28;20658;-79
2023/03/31 07:04:47;;;;;;;11.87;7.70;;;;;;;;;;5034887;28;20190;-79
2023/03/31 07:07:13;;;;;;;8.43;5.43;;;;;;;;;;5044112;28;20190;-78
2023/03/31 07:09:39;;;;;;;9.17;5.20;;;;;;;;;;5042360;28;20182;-78
2023/03/31 07:12:06;;;;;;;10.07;5.47;;;;;;;;;;5041777;28;20209;-79
2023/03/31 07:14:32;;;;;;;8.37;4.43;;;;;;;;;;5046553;28;20197;-77
2023/03/31 07:16:58;;;;;;;9.20;5.23;;;;;;;;;;5044861;28;20782;-82
2023/03/31 07:19:24;;;;;;;9.67;5.37;;;;;;;;;;5050525;28;20194;-80
2023/03/31 07:21:52;;;;;;;10.83;5.23;;;;;;;;;;5045671;28;20200;-77
2023/03/31 07:24:18;;;;;;;10.27;4.73;;;;;;;;;;5046642;28;20182;-77
2023/03/31 07:26:44;;;;;;;9.80;5.33;;;;;;;;;;5043524;28;20183;-78
2023/03/31 07:29:10;;;;;;;8.97;5.20;;;;;;;;;;5046628;28;20216;-77
2023/03/31 07:31:36;;;;;;;10.50;5.50;;;;;;;;;;5047144;28;20309;-78
2023/03/31 07:34:03;;;;;;;8.33;4.73;;;;;;;;;;5046343;28;20487;-77
2023/03/31 07:36:29;;;;;;;8.87;5.10;;;;;;;;;;5042850;28;20206;-77
2023/03/31 07:38:56;;;;;;;9.57;5.10;;;;;;;;;;5049882;28;20189;-79
2023/03/31 07:41:25;;;;;;;9.33;5.47;;;;;;;;;;5039918;28;20256;-78
2023/03/31 07:43:51;;;;;;;7.83;4.80;;;;;;;;;;5046977;28;20178;-80
2023/03/31 07:46:19;;;;;;;10.03;4.60;;;;;;;;;;5049750;28;20182;-80
2023/03/31 07:48:46;;;;;;;8.27;4.93;;;;;;;;;;5050352;28;20696;-80
2023/03/31 07:51:13;;;;;;;11.37;5.30;;;;;;;;;;5046891;28;20213;-79
2023/03/31 07:53:40;;;;;;;7.43;5.00;;;;;;;;;;5048478;28;20194;-80
2023/03/31 07:56:06;;;;;;;9.37;5.30;;;;;;;;;;5042812;28;20213;-80
2023/03/31 07:58:32;;;;;;;9.20;5.10;;;;;;;;;;5043356;28;20658;-80
2023/03/31 08:00:58;;;;;;;10.50;5.30;;;;;;;;;;5048377;28;20297;-80
2023/03/31 08:03:25;;;;;;;8.17;5.03;;;;;;;;;;5026409;28;20217;-79
2023/03/31 08:05:51;;;;;;;9.70;5.30;;;;;;;;;;5048341;28;20295;-80
2023/03/31 08:08:18;;;;;;;10.57;5.67;;;;;;;;;;5048065;28;20217;-80
2023/03/31 08:10:44;;;;;;;8.73;5.03;;;;;;;;;;5048578;28;20233;-80
2023/03/31 08:13:10;;;;;;;8.97;5.80;;;;;;;;;;5045614;28;20213;-80
2023/03/31 08:15:36;;;;;;;9.87;5.50;;;;;;;;;;5048748;28;20209;-80
2023/03/31 08:18:03;;;;;;;9.87;4.97;;;;;;;;;;5045478;28;20208;-80
2023/03/31 08:20:29;;;;;;;8.53;5.20;;;;;;;;;;5046013;28;20316;-80
2023/03/31 08:22:55;;;;;;;15.10;5.30;;;;;;;;;;5047375;28;20186;-80
2023/03/31 08:25:22;;;;;;;10.87;5.17;;;;;;;;;;5038750;28;20204;-80
2023/03/31 08:27:49;;;;;;;8.23;4.57;;;;;;;;;;5044643;28;20184;-80
2023/03/31 08:30:16;;;;;;;10.20;4.90;;;;;;;;;;5043722;28;20212;-80
2023/03/31 08:32:42;;;;;;;9.90;4.57;;;;;;;;;;5045156;28;20193;-79
2023/03/31 08:35:09;;;;;;;7.37;4.30;;;;;;;;;;5048916;28;20217;-79
2023/03/31 08:37:36;;;;;;;10.00;5.10;;;;;;;;;;5044341;28;20233;-79
2023/03/31 08:40:04;;;;;;;9.00;4.40;;;;;;;;;;5046684;28;20190;-80
2023/03/31 08:42:38;;;;;;;8.73;4.67;;;;;;;;;;5045385;28;20185;-79
2023/03/31 08:45:30;;;;;;;7.07;4.23;;;;;;;;;;5045740;28;20173;-82
2023/03/31 08:48:02;;;;;;;9.80;4.90;;;;;;;;;;5041113;28;20233;-80
2023/03/31 08:50:30;;;;;;;9.33;4.07;;;;;;;;;;5041212;28;20475;-79
2023/03/31 08:53:02;;;;;;;8.30;3.77;;;;;;;;;;5044398;28;20575;-73
2023/03/31 08:55:34;;;;;;;8.40;4.40;;;;;;;;;;5039296;28;20259;-74
2023/03/31 08:58:07;;;;;;;8.13;4.20;;;;;;;;;;5040960;28;20198;-76
2023/03/31 09:00:55;;;;;;;10.47;4.70;;;;;;;;;;5040758;28;20229;-83
2023/03/31 09:03:28;;;;;;;10.03;4.67;;;;;;;;;;5042280;28;20177;-80
2023/03/31 09:06:00;;;;;;;11.27;4.57;;;;;;;;;;5044288;28;20752;-80
2023/03/31 09:08:34;;;;;;;6.63;4.43;;;;;;;;;;5040728;28;20220;-80
2023/03/31 09:11:08;;;;;;;7.77;4.50;;;;;;;;;;5026470;28;20214;-79
2023/03/31 09:13:43;;;;;;;9.17;4.30;;;;;;;;;;5041539;28;20202;-81
2023/03/31 09:16:22;;;;;;;7.97;4.67;;;;;;;;;;5040830;28;20205;-80
2023/03/31 09:18:48;;;;;;;11.53;5.30;;;;;;;;;;5025023;28;20189;-81
2023/03/31 09:21:32;;;;;;;8.37;5.20;;;;;;;;;;5018997;28;20201;-82
2023/03/31 09:23:58;;;;;;;9.23;4.90;;;;;;;;;;5043381;28;20193;-80
2023/03/31 09:26:26;;;;;;;9.47;3.50;;;;;;;;;;5028362;28;20212;-79
2023/03/31 09:28:54;;;;;;;8.53;2.07;;;;;;;;;;5038636;28;20205;-82
2023/03/31 09:31:20;;;;;;;6.80;2.30;;;;;;;;;;5043642;28;20208;-79
2023/03/31 09:33:51;;;;;;;11.10;2.43;;;;;;;;;;5043147;28;20192;-80
2023/03/31 09:36:21;;;;;;;7.47;2.20;;;;;;;;;;5043056;28;20204;-78
2023/03/31 09:38:47;;;;;;;8.83;2.57;;;;;;;;;;5042096;28;20296;-77
2023/03/31 09:41:15;;;;;;;5.03;1.77;;;;;;;;;;5045306;28;20663;-78
2023/03/31 09:43:44;;;;;;;8.20;2.07;;;;;;;;;;5046387;28;20186;-77
2023/03/31 09:46:30;;;;;;;4.57;1.97;;;;;;;;;;5049585;28;20190;-78
2023/03/31 09:49:04;;;;;;;9.10;2.20;;;;;;;;;;5046991;28;20276;-77
2023/03/31 09:51:32;;;;;;;5.47;2.00;;;;;;;;;;5041996;28;20228;-78
2023/03/31 09:54:17;;;;;;;7.10;1.97;;;;;;;;;;5040001;28;20186;-78
2023/03/31 09:56:47;;;;;;;7.40;1.73;;;;;;;;;;5041949;28;20729;-79
2023/03/31 09:59:16;;;;;;;4.40;1.67;;;;;;;;;;5049176;28;20173;-79
2023/03/31 10:01:53;;;;;;;5.67;1.97;;;;;;;;;;5047463;28;20220;-80
2023/03/31 10:04:23;;;;;;;3.83;1.47;;;;;;;;;;5044763;28;20228;-78
2023/03/31 10:06:51;;;;;;;5.73;2.00;;;;;;;;;;5043465;28;20181;-78
2023/03/31 10:09:20;;;;;;;5.30;1.80;;;;;;;;;;5042848;28;21435;-79
2023/03/31 10:11:59;;;;;;;7.87;2.03;;;;;;;;;;5041010;28;20205;-78
2023/03/31 10:14:27;;;;;;;7.23;2.30;;;;;;;;;;5037130;28;20243;-79
2023/03/31 10:16:55;;;;;;;9.20;4.17;;;;;;;;;;5044775;28;20308;-78
2023/03/31 10:19:27;;;;;;;15.67;8.43;;;;;;;;;;5047404;28;20650;-78
2023/03/31 10:21:58;;;;;;;14.87;5.53;;;;;;;;;;5049060;28;20208;-78
2023/03/31 10:24:25;;;;;;;11.77;5.50;;;;;;;;;;5035407;28;20706;-78
2023/03/31 10:26:56;;;;;;;8.90;4.13;;;;;;;;;;5044588;28;20170;-78
2023/03/31 10:29:26;;;;;;;9.93;5.03;;;;;;;;;;5038993;28;20189;-78
2023/03/31 10:31:52;;;;;;;6.33;2.90;;;;;;;;;;5039246;28;20221;-78
2023/03/31 10:34:19;;;;;;;8.73;4.97;;;;;;;;;;5045414;28;20189;-78
2023/03/31 10:36:49;;;;;;;9.00;4.13;;;;;;;;;;5046265;28;20221;-78
2023/03/31 10:39:16;;;;;;;5.87;2.80;;;;;;;;;;5049961;28;20560;-78
2023/03/31 10:41:43;;;;;;;26.17;14.17;;;;;;;;;;5048684;28;20201;-78
2023/03/31 10:44:29;;;;;;;19.77;9.80;;;;;;;;;;5048076;28;20193;-78
2023/03/31 10:46:55;;;;;;;20.70;11.83;;;;;;;;;;5047428;28;20264;-78
2023/03/31 10:49:21;;;;;;;12.80;5.30;;;;;;;;;;5049553;28;20182;-78
2023/03/31 10:51:59;;;;;;;8.57;3.47;;;;;;;;;;5044836;28;20225;-78
2023/03/31 10:54:26;;;;;;;6.73;3.37;;;;;;;;;;5028448;28;20261;-78
2023/03/31 10:56:54;;;;;;;6.37;3.23;;;;;;;;;;5046280;28;20210;-78
2023/03/31 10:59:26;;;;;;;6.03;3.00;;;;;;;;;;5048343;28;20193;-79
2023/03/31 11:02:05;;;;;;;8.33;3.30;;;;;;;;;;5044677;28;20208;-79
2023/03/31 11:04:34;;;;;;;10.07;3.50;;;;;;;;;;5042680;28;20224;-78
2023/03/31 11:07:19;;;;;;;7.70;3.00;;;;;;;;;;5045294;28;20213;-78
2023/03/31 11:09:56;;;;;;;9.60;2.93;;;;;;;;;;5045681;28;20200;-78
2023/03/31 11:12:50;;;;;;;8.00;4.07;;;;;;;;;;5047561;28;20190;-79
2023/03/31 11:15:16;;;;;;;10.60;3.80;;;;;;;;;;5044259;28;20292;-80
2023/03/31 11:18:01;;;;;;;6.80;2.37;;;;;;;;;;5046351;28;20190;-80
2023/03/31 11:20:34;;;;;;;6.73;2.37;;;;;;;;;;5035757;28;20210;-78
2023/03/31 11:23:03;;;;;;;7.37;2.30;;;;;;;;;;5045402;28;20190;-76
2023/03/31 11:25:34;;;;;;;4.53;2.00;;;;;;;;;;5039615;28;20654;-78
2023/03/31 11:28:23;;;;;;;10.23;2.40;;;;;;;;;;5047488;28;20178;-77
2023/03/31 11:30:52;;;;;;;8.47;2.20;;;;;;;;;;5043078;28;20213;-81
2023/03/31 11:33:41;;;;;;;7.63;2.80;;;;;;;;;;5048920;28;20185;-80
2023/03/31 11:36:21;;;;;;;6.10;2.50;;;;;;;;;;5048011;28;20218;-79
2023/03/31 11:38:52;;;;;;;4.03;1.80;;;;;;;;;;5044520;28;20173;-78
2023/03/31 11:41:36;;;;;;;5.53;1.90;;;;;;;;;;5047792;28;20514;-76
2023/03/31 11:44:04;;;;;;;5.97;1.80;;;;;;;;;;5050800;28;20184;-78
2023/03/31 11:46:44;;;;;;;4.87;1.80;;;;;;;;;;5049725;28;20597;-78
2023/03/31 11:49:15;;;;;;;6.13;1.80;;;;;;;;;;5048521;28;20174;-77
2023/03/31 11:51:44;;;;;;;4.57;1.80;;;;;;;;;;5046878;28;20214;-78
2023/03/31 11:54:15;;;;;;;5.47;1.80;;;;;;;;;;5049652;28;20213;-79
2023/03/31 11:56:42;;;;;;;5.03;1.67;;;;;;;;;;5044555;28;20264;-78
2023/03/31 11:59:12;;;;;;;4.57;1.60;;;;;;;;;;5046015;28;20172;-78
2023/03/31 12:01:47;;;;;;;5.23;1.53;;;;;;;;;;5040899;28;20219;-77
2023/03/31 12:04:32;;;;;;;4.60;1.33;;;;;;;;;;5045296;28;20650;-78
2023/03/31 12:07:03;;;;;;;5.97;1.60;;;;;;;;;;5047168;28;20228;-77
2023/03/31 12:09:43;;;;;;;5.67;1.50;;;;;;;;;;5031896;28;20199;-78
2023/03/31 12:12:12;;;;;;;6.07;1.73;;;;;;;;;;5052604;28;20210;-78
2023/03/31 12:14:43;;;;;;;5.37;1.90;;;;;;;;;;5051208;28;20217;-77
2023/03/31 12:17:18;;;;;;;6.63;1.70;;;;;;;;;;5047166;28;20205;-77
2023/03/31 12:19:47;;;;;;;8.27;2.07;;;;;;;;;;5028639;28;20227;-78
2023/03/31 12:22:28;;;;;;;8.97;2.23;;;;;;;;;;5044131;28;20239;-77
2023/03/31 12:24:55;;;;;;;3.37;1.60;;;;;;;;;;5038342;28;20212;-77
2023/03/31 12:27:26;;;;;;;6.33;1.93;;;;;;;;;;5046130;28;20244;-78
2023/03/31 12:29:56;;;;;;;8.57;2.37;;;;;;;;;;5045446;28;20182;-78
2023/03/31 12:32:23;;;;;;;6.30;1.93;;;;;;;;;;5045102;28;20192;-78
2023/03/31 12:35:02;;;;;;;5.13;1.80;;;;;;;;;;5052003;28;20184;-78
2023/03/31 12:37:34;;;;;;;7.37;2.03;;;;;;;;;;5051241;28;20221;-78
2023/03/31 12:40:08;;;;;;;5.03;1.50;;;;;;;;;;5049006;28;20185;-79
2023/03/31 12:42:53;;;;;;;6.47;1.70;;;;;;;;;;5048162;28;20185;-78
2023/03/31 12:45:22;;;;;;;3.53;1.70;;;;;;;;;;5051047;28;20216;-78
2023/03/31 12:48:09;;;;;;;3.63;1.23;;;;;;;;;;5052447;28;20234;-78
2023/03/31 12:50:41;;;;;;;4.30;1.50;;;;;;;;;;5044031;28;20209;-79
2023/03/31 12:53:07;;;;;;;3.83;1.30;;;;;;;;;;5050951;28;20213;-77
2023/03/31 12:55:39;;;;;;;3.33;1.20;;;;;;;;;;5048279;28;20209;-78
2023/03/31 12:58:25;;;;;;;3.63;1.00;;;;;;;;;;5042391;28;20236;-79
2023/03/31 13:01:03;;;;;;;2.60;1.10;;;;;;;;;;5038853;28;20343;-78
2023/03/31 13:03:41;;;;;;;1.90;0.90;;;;;;;;;;5044348;28;20249;-79
2023/03/31 13:06:10;;;;;;;3.70;1.83;;;;;;;;;;5043444;28;20284;-79
2023/03/31 13:08:48;;;;;;;3.73;1.33;;;;;;;;;;5024895;28;20186;-78
2023/03/31 13:12:06;;;;;;;3.03;1.10;;;;;;;;;;5041305;28;20216;-79
2023/03/31 13:14:40;;;;;;;2.63;0.90;;;;;;;;;;5045966;28;20237;-78
2023/03/31 13:17:25;;;;;;;2.27;1.30;;;;;;;;;;5044909;28;20308;-79
2023/03/31 13:19:51;;;;;;;2.30;1.07;;;;;;;;;;5046852;28;20658;-79
2023/03/31 13:22:31;;;;;;;3.30;1.23;;;;;;;;;;5045739;28;20212;-78
2023/03/31 13:25:20;;;;;;;2.93;1.10;;;;;;;;;;5047514;28;20474;-79
2023/03/31 13:27:52;;;;;;;3.67;1.17;;;;;;;;;;5027501;28;20457;-79
2023/03/31 13:30:36;;;;;;;3.77;1.33;;;;;;;;;;5045789;28;20217;-79
2023/03/31 13:33:11;;;;;;;3.33;1.17;;;;;;;;;;5046879;28;20525;-79
2023/03/31 13:35:38;;;;;;;1.90;1.10;;;;;;;;;;5031256;28;20320;-78
2023/03/31 13:38:07;;;;;;;4.03;1.43;;;;;;;;;;5046251;28;20190;-78
2023/03/31 13:40:51;;;;;;;3.53;1.33;;;;;;;;;;5047257;28;20724;-78
2023/03/31 13:43:27;;;;;;;3.43;1.10;;;;;;;;;;5044800;28;20269;-78
2023/03/31 13:45:56;;;;;;;4.40;1.40;;;;;;;;;;5055800;28;20205;-78
2023/03/31 13:48:32;;;;;;;2.70;1.37;;;;;;;;;;5050403;28;20186;-78
2023/03/31 13:51:13;;;;;;;4.03;1.80;;;;;;;;;;5044669;28;20255;-77
2023/03/31 13:53:39;;;;;;;4.07;1.30;;;;;;;;;;5046565;28;20243;-78
2023/03/31 13:56:06;;;;;;;3.43;1.30;;;;;;;;;;5049141;28;20203;-77
2023/03/31 13:58:53;;;;;;;2.97;1.20;;;;;;;;;;5048927;28;20193;-77
2023/03/31 14:01:39;;;;;;;5.33;1.17;;;;;;;;;;5038057;28;20655;-77
2023/03/31 14:04:24;;;;;;;3.37;1.37;;;;;;;;;;5048121;28;20189;-79
2023/03/31 14:06:54;;;;;;;4.07;1.37;;;;;;;;;;5047893;28;20268;-78
2023/03/31 14:09:32;;;;;;;3.90;1.07;;;;;;;;;;5047763;28;20243;-77
2023/03/31 14:11:59;;;;;;;4.20;1.10;;;;;;;;;;5043969;28;20277;-78
2023/03/31 14:14:26;;;;;;;4.73;1.47;;;;;;;;;;5043565;28;20201;-77
2023/03/31 14:16:55;;;;;;;5.87;1.43;;;;;;;;;;5044414;28;20208;-79
2023/03/31 14:19:26;;;;;;;7.00;1.63;;;;;;;;;;5041601;28;20189;-79
2023/03/31 14:21:58;;;;;;;4.87;1.60;;;;;;;;;;5049965;28;20214;-78
2023/03/31 14:24:31;;;;;;;4.50;1.37;;;;;;;;;;5047893;28;20298;-78
2023/03/31 14:26:57;;;;;;;3.00;1.33;;;;;;;;;;5053586;28;20178;-79
2023/03/31 14:29:38;;;;;;;4.70;1.40;;;;;;;;;;5053389;28;20194;-78
2023/03/31 14:32:15;;;;;;;4.63;1.37;;;;;;;;;;5052658;28;20201;-78
2023/03/31 14:34:41;;;;;;;4.20;1.10;;;;;;;;;;5055550;28;20289;-78
2023/03/31 14:37:12;;;;;;;4.60;1.20;;;;;;;;;;5052396;28;20198;-78
2023/03/31 14:39:43;;;;;;;4.07;1.20;;;;;;;;;;5053517;28;20177;-79
2023/03/31 14:42:14;;;;;;;4.13;1.20;;;;;;;;;;5053136;28;20784;-78
2023/03/31 14:44:43;;;;;;;2.20;1.10;;;;;;;;;;5050781;28;20514;-79
2023/03/31 14:47:28;;;;;;;2.80;1.20;;;;;;;;;;5050411;28;20182;-78
2023/03/31 14:50:02;;;;;;;2.50;1.50;;;;;;;;;;5053059;28;20680;-79
2023/03/31 14:52:34;;;;;;;4.77;1.30;;;;;;;;;;5050990;28;20276;-78
2023/03/31 14:55:00;;;;;;;2.47;1.10;;;;;;;;;;5044894;28;20832;-79
2023/03/31 14:57:32;;;;;;;3.23;1.43;;;;;;;;;;5046061;28;20221;-79
2023/03/31 14:59:59;;;;;;;4.67;1.60;;;;;;;;;;5048525;28;20185;-78
2023/03/31 15:02:45;;;;;;;3.40;1.80;;;;;;;;;;5043917;28;20221;-79